Weather observations for the past three days for
Kansas City - Lee's Summit Regional Airport
Imperial (Metric)
Date Time (cdt) Wind (mph) Vis. (mi.) Weather Sky Cond. Temperature (ºF) Relative Humidity Wind Chill (°F) Heat Index (°F) Pressure Precipitation (in)
Air Dwpt 6 hour altimeter (in) sea level (mb) 1 hr 3 hr 6 hr
Max. Min.
01 01:53 S 7 10.00 Fair CLR 78.1 60.1 54% 79 29.99 1014.3
01 00:53 SW 8 10.00 Fair CLR 81 60.1 93.9 81 49% 82 29.99 1014.3
31 23:53 SW 9 10.00 Fair CLR 82 59 46% 82 29.99 1014.1
31 22:53 S 12 10.00 Fair CLR 87.1 59 39% 86 29.98 1014.0
31 21:53 S 14 10.00 Fair CLR 88 60.1 39% 88 29.97 1013.7
31 20:53 S 12 10.00 Fair CLR 90 62.1 39% 90 29.96 1013.3
31 19:53 S 6 10.00 Fair CLR 91 62.1 38% 92 29.94 1012.8
31 18:53 SW 7 10.00 Fair CLR 93.9 64 99 93 37% 96 29.94 1012.7
31 17:53 S 13 10.00 Fair CLR 98.1 61 29% 99 29.94 1012.5
31 16:53 SW 12 G 17 10.00 Fair CLR 99 63 31% 101 29.94 1012.6
31 15:53 SW 16 G 24 10.00 Fair CLR 98.1 62.1 31% 99 29.94 1012.7
31 14:53 SW 16 10.00 Fair CLR 98.1 63 32% 100 29.96 1013.1
31 13:53 SW 15 G 28 10.00 Fair CLR 95 64 36% 97 29.96 1013.4
31 12:53 SW 15 G 31 10.00 Fair CLR 96.1 64 96.1 75 35% 98 29.98 1013.9
31 11:53 SW 17 G 26 10.00 Fair CLR 91.9 64.9 41% 94 30 1014.5
31 10:53 SW 16 G 24 10.00 Fair CLR 87.1 63 45% 88 30 1014.6
31 09:53 SW 14 10.00 Fair CLR 84 64.9 53% 86 30 1014.6
31 08:53 SW 14 10.00 A Few Clouds FEW110 80.1 63 56% 81 30 1014.7
31 07:53 SW 15 10.00 Fair CLR 78.1 62.1 58% 80 29.99 1014.4
31 06:53 S 12 10.00 Fair CLR 75 62.1 82 75 64% 77 29.98 1013.9
31 05:53 S 12 10.00 Fair CLR 77 61 58% 79 29.96 1013.3
31 04:53 S 14 10.00 Fair CLR 77 61 58% 79 29.95 1012.8
31 03:53 S 14 G 23 10.00 Fair CLR 78.1 61 56% 80 29.94 1012.6
31 02:53 S 13 10.00 Fair CLR 79 61 54% 80 29.94 1012.4
31 01:53 S 10 10.00 Fair CLR 79 62.1 56% 80 29.93 1012.2
30 23:53 S 14 G 22 10.00 Fair CLR 84.9 60.1 43% 85 29.91 1011.6
30 22:53 S 16 G 25 10.00 Fair CLR 87.1 60.1 40% 87 29.92 1011.7
30 21:53 S 14 10.00 Fair CLR 87.1 62.1 43% 88 29.91 1011.6
30 20:53 S 13 10.00 Fair CLR 89.1 63 42% 90 29.89 1011.0
30 19:53 S 9 10.00 Fair CLR 90 63 41% 91 29.87 1010.5
30 18:53 S 14 10.00 Fair CLR 95 61 98.1 91.9 32% 95 29.87 1010.2
30 17:53 S 14 10.00 Fair CLR 97 62.1 32% 98 29.86 1010.0
30 16:53 S 20 G 29 10.00 Fair CLR 98.1 62.1 31% 99 29.86 1009.9
30 15:53 S 15 G 26 10.00 Fair CLR 97 64.9 35% 100 29.88 1010.6
30 14:53 S 17 G 24 10.00 Fair CLR 98.1 64.9 34% 101 29.9 1011.3
30 13:53 S 14 10.00 Fair CLR 95 64.9 37% 98 29.92 1012.0
30 12:53 SW 17 G 26 10.00 Fair CLR 91.9 64 91.9 73.9 40% 94 29.94 1012.6
30 11:53 SW 20 G 26 10.00 Fair CLR 90 64 42% 91 29.95 1013.1
30 10:53 SW 16 10.00 Fair CLR 86 63 46% 87 29.96 1013.2
30 09:53 S 16 10.00 Fair CLR 81 62.1 53% 82 29.95 1012.9
30 08:53 S 15 G 28 10.00 Fair CLR 79 61 54% 80 29.95 1013.1
30 07:53 S 16 G 22 10.00 Fair CLR 75 61 62% 77 29.96 1013.5
30 06:53 S 14 10.00 Fair CLR 73.9 61 81 73.9 64% 29.96 1013.3
30 05:53 S 13 10.00 Fair CLR 75 61 62% 77 29.95 1013.1
30 04:53 S 15 10.00 Fair CLR 75.9 61 60% 78 29.95 1013.0
30 03:53 S 14 10.00 Fair CLR 77 61 58% 79 29.95 1012.9
30 02:53 S 17 G 25 10.00 Fair CLR 78.1 61 56% 80 29.94 1012.6
30 01:53 S 14 10.00 Fair CLR 79 61 54% 80 29.94 1012.6
30 00:53 S 14 G 25 10.00 Fair CLR 81 61 91.9 81 51% 82 29.95 1012.9
29 23:53 S 14 G 22 10.00 Fair CLR 82 61 49% 83 29.94 1012.8
29 22:53 S 14 10.00 Fair CLR 82 61 49% 83 29.95 1013.1
29 21:53 S 12 G 21 10.00 Fair CLR 84 61 46% 84 29.95 1013.0
29 20:53 S 10 10.00 Fair CLR 86 61 43% 86 29.93 1012.4
29 19:53 S 9 10.00 Fair CLR 88 62.1 42% 88 29.92 1012.1
29 18:53 S 12 10.00 Fair CLR 91.9 62.1 96.1 89.1 37% 93 29.92 1012.0
29 17:53 SW 14 10.00 Fair CLR 95 62.1 34% 96 29.92 1011.9
29 16:53 S 16 G 24 10.00 Fair CLR 95 62.1 34% 96 29.93 1012.3
29 15:53 S 14 10.00 Fair CLR 96.1 64 35% 98 29.95 1013.0
29 14:53 S 20 G 26 10.00 Fair CLR 95 63 35% 96 29.97 1013.7
29 13:53 S 14 G 21 10.00 Fair CLR 91.9 64.9 41% 94 30 1014.6
29 12:53 S 15 10.00 Fair CLR 89.1 64.9 89.1 68 45% 91 30.02 1015.6
29 11:53 SW 16 G 22 10.00 Fair CLR 86 64.9 49% 88 30.05 1016.4
29 10:53 S 15 G 23 10.00 Fair CLR 79 63 58% 81 30.06 1017.2
29 09:53 S 16 10.00 Fair CLR 75.9 61 60% 78 30.07 1017.4
29 08:53 S 10 10.00 Fair CLR 73 61 66% 30.08 1017.8
29 07:53 S 12 10.00 Fair CLR 69.1 59 70% 30.07 1017.6
29 06:53 S 9 10.00 Fair CLR 68 59 73 68 73% 30.07 1017.3
29 05:53 S 10 10.00 Fair CLR 69.1 57.9 68% 30.06 1016.9
29 04:53 S 12 10.00 Fair CLR 69.1 59 70% 30.07 1017.3
29 03:53 S 10 10.00 Fair CLR 70 59 68% 30.08 1017.5
29 02:53 S 13 10.00 Fair CLR 71.1 59 66% 30.07 1017.3
Date Time (cdt) Wind (mph) Vis. (mi.) Weather Sky Cond. Air Dwpt Max. Min. Relative Humidity Wind Chill (°F) Heat Index (°F) altimeter (in) sea level (mb) 1 hr 3 hr 6 hr
6 hour
Temperature (ºF) Pressure Precipitation (in)